Etusivu
METAR-TAF:

METAR-TAF

Lentoasemat :

Montgomery, Alabama, Yhdysvallat

Leveyspiiri: 32-18-01N, Pituuspiiri: 086-24-22W, korkeus merenpinnasta: 67 m

Tämänhetkinen sää

Tämä raportti tehtiin 16 minuuttia sitten, kello 09.13 UTC
tyyntä
Lämpötila 2°C
Kosteus 80%
Ilmanpaine 1032 hPa
Näkyvyys: 4.0 km
selkeää
usvaa

METAR: KMGM 080913Z AUTO 00000KT 2 1/2SM HZ CLR 02/M01 A3047 RMK AO2 T00221006

Aika: 03:29 (09:29 UTC)

Sääennuste

Tämä raportti tehtiin 4 tuntia ja 9 minuuttia sitten, kello 05.20 UTC
Ennuste voimassa 08. päivästä klo 06 UTC - 09. päivään klo 06 UTC
Tuuli 3 kn pohjoisesta
Näkyvyys: 10 km
selkeää
From 08. päivästä klo 1600 UTC
Tuuli 4 kn kaakosta
Näkyvyys: 10 km
selkeää
From 09. päivästä klo 0000 UTC
Tuuli kn pohjoisesta
Näkyvyys: 10 km
selkeää

TAF: KMGM 080520Z 0806/0906 01003KT P6SM SKC FM081600 14004KT P6SM SKC FM090000 00000KT P6SM SKC

Säähavainnot ja -ennusteet yli 4000 lentoasemalta (METAR- ja TAF-raportit).

Käytössä olevat sääasemat on merkitty karttaan keltaisilla ja punaisilla pisteillä.

Aseta hiiri pisteen päälle nähdäksesi sääaseman nimen.

Klikkaa sitten nähdäksesi säähavainnot ja -ennusteet.

Kartan vaihtaminen: klikkaa mustalla rastilla varustettuja vihreitä pisteitä, niin voit zoomata sisään; viivalla varustettua vihreää pistettä, niin voit zoomata ulos tai vihreitä nuolia, niin pääset viereisille kartoille.


METAR-TAF: